weather.gov     
National Weather Service

Terminal Aerodrome Forecast
NWS Homepage
This page is being discontinued on March 12, 2014.
The same data is available at this site. Please update your bookmarks.
Thank you, and we apologize for the inconvenience.
Please send an email to SR-SRH.Webmaster@noaa.gov with any concerns.


Current Version
Previous Version:    01  02  03  04  05  06  07  08  09  10  11  12  13  14  15  16  17  18  19  20  21  22  23  24  25  26  27  28  29  30  
   31  32  33  
[Printable]
934
FTUS43 KICT 240100 AAA
TAFHUT
TAF AMD
KHUT 240159Z 2402/2424 19018G24KT P6SM BKN080
     FM240230 17019G30KT P6SM VCTS BKN070CB
     FM240400 17020G30KT P6SM BKN100
     FM240730 20018KT P6SM TSRA BKN030CB
     FM241030 33021G30KT P6SM BKN025
     FM241400 33017G22KT P6SM SCT025 BKN080
     FM242100 32013KT P6SM SKC=


U.S. Dept. of Commerce
NOAA National Weather Service
1325 East West Highway
Silver Spring, MD 20910
E-mail: w-nws.webmaster@noaa.gov
Page last modified: May 16, 2007
NATIONAL WEATHER SERVICE: for Safety, for Work, for Fun - FOR LIFE